Mont Saint Michel — FNMT — position and weather

sailwx.info

Track history (hours):
 
Tides and Currents Weather Stations Pressure Air Temp Water Temp Dewpoint Dewpoint Depression Visibility Wind Speed Wind Dir Waves Ship Positions

Mont Saint Michel

Last reported at 2018-May-28 01:00 UTC. Time now 2018-May-28 01:09 UTC.
Position N 50°05' W 000°43'.

Length 173 m; beam 29 m.

Type: Ship. MMSI: 227023100.

Date/timePositionNaut miles runAvg speedWind from/ knotsBaromVisibWave heightAir tempDewpointWater temp
2018-May-28 01:00N 50°05' W 000°43'714.4
2018-May-28 00:30N 50°12' W 000°48'815.7
2018-May-28 00:00N 50°19' W 000°49'816.0
2018-May-27 23:30N 50°27' W 000°52'815.1
2018-May-27 23:00N 50°34' W 000°57'816.1
2018-May-27 22:31N 50°42' W 001°01'713.0
2018-May-27 22:00N 50°47' W 001°06'2 3.1
2018-May-27 21:30N 50°49' W 001°06'0 0.0
2018-May-27 21:00N 50°49' W 001°06'0 0.0
2018-May-27 20:30N 50°49' W 001°06'0 0.4
2018-May-27 20:01N 50°49' W 001°06'4 8.5
2018-May-27 19:31N 50°45' W 001°05'1019.5
2018-May-27 19:00N 50°36' W 000°57'1019.6
2018-May-27 18:30N 50°27' W 000°50'1020.1
2018-May-27 18:00N 50°18' W 000°45'1019.8
2018-May-27 17:30N 50°09' W 000°40'1019.9
2018-May-27 17:01N 49°59' W 000°34'1020.1
2018-May-27 16:30N 49°50' W 000°30'1019.3
2018-May-27 16:01N 49°40' W 000°25'1019.5
2018-May-27 15:30N 49°31' W 000°21'1019.5
2018-May-27 15:01N 49°22' W 000°15'5 9.4
2018-May-27 14:31N 49°17' W 000°15'0 0.0
2018-May-27 14:00N 49°17' W 000°15'0 0.0
2018-May-27 13:30N 49°17' W 000°15'0 0.0
2018-May-27 13:00N 49°17' W 000°15'4 8.8
2018-May-27 12:31N 49°22' W 000°14'1019.1
2018-May-27 12:01N 49°31' W 000°18'918.8
2018-May-27 11:31N 49°39' W 000°25'1019.7
2018-May-27 11:00N 49°48' W 000°30'918.8
2018-May-27 10:31N 49°57' W 000°37'1019.4
2018-May-27 10:00N 50°06' W 000°43'1019.2
2018-May-27 09:30N 50°15' W 000°48'1019.4
2018-May-27 09:00N 50°24' W 000°52'1019.7
2018-May-27 08:31N 50°33' W 000°56'918.7
2018-May-27 08:01N 50°42' W 001°01'714.1
2018-May-27 07:30N 50°48' W 001°07'1 1.6
2018-May-27 07:00N 50°49' W 001°06'0 0.0
2018-May-27 06:30N 50°49' W 001°06'0 0.0
2018-May-27 06:00N 50°49' W 001°06'0 1.0
2018-May-27 05:30N 50°49' W 001°07'612.2
2018-May-27 05:00N 50°43' W 001°02'917.1
2018-May-27 04:30N 50°36' W 000°56'713.3
2018-May-27 04:01N 50°29' W 000°52'611.9
2018-May-27 03:30N 50°24' W 000°50'612.1
2018-May-27 03:00N 50°18' W 000°47'612.5
2018-May-27 02:31N 50°12' W 000°43'612.4
2018-May-27 02:00N 50°06' W 000°41'612.3
2018-May-27 01:31N 50°00' W 000°39'612.1
2018-May-27 01:01N 49°55' W 000°35'612.1
2018-May-27 00:30N 49°49' W 000°31'612.2
2018-May-27 00:00N 49°43' W 000°28'612.1
2018-May-26 23:30N 49°38' W 000°25'612.0
2018-May-26 23:00N 49°32' W 000°21'611.8
2018-May-26 22:31N 49°27' W 000°16'611.5
2018-May-26 22:01N 49°22' W 000°14'4 8.4
2018-May-26 21:30N 49°17' W 000°15'0 0.0
2018-May-26 21:00N 49°17' W 000°15'0 0.0
2018-May-26 20:30N 49°17' W 000°15'0 0.0
2018-May-26 20:00N 49°17' W 000°15'0 0.0
2018-May-26 19:30N 49°17' W 000°15'4 7.6
2018-May-26 19:01N 49°21' W 000°14'1019.7
2018-May-26 18:31N 49°31' W 000°18'917.0
2018-May-26 18:00N 49°39' W 000°23'917.3
2018-May-26 17:30N 49°47' W 000°28'918.3
2018-May-26 17:01N 49°55' W 000°33'1019.8
2018-May-26 16:31N 50°04' W 000°39'1019.6
2018-May-26 16:00N 50°13' W 000°44'1019.3
2018-May-26 15:31N 50°22' W 000°50'1019.1
2018-May-26 15:01N 50°31' W 000°55'918.8
2018-May-26 14:31N 50°40' W 000°59'815.9
2018-May-26 14:00N 50°47' W 001°06'2 3.8
2018-May-26 13:30N 50°49' W 001°06'0 0.0
2018-May-26 13:01N 50°49' W 001°06'0 0.0
2018-May-26 12:30N 50°49' W 001°06'0 0.3
2018-May-26 12:01N 50°49' W 001°06'510.7
2018-May-26 11:30N 50°44' W 001°03'1019.8
2018-May-26 11:00N 50°35' W 000°56'1121.3
2018-May-26 10:30N 50°25' W 000°50'1121.5
2018-May-26 10:00N 50°15' W 000°42'1121.3
2018-May-26 09:30N 50°05' W 000°38'1019.9
2018-May-26 09:00N 49°56' W 000°32'1019.4
2018-May-26 08:30N 49°47' W 000°27'1019.1
2018-May-26 08:00N 49°38' W 000°21'917.1
2018-May-26 07:31N 49°30' W 000°17'917.4
2018-May-26 07:00N 49°21' W 000°15'4 7.9
2018-May-26 06:30N 49°17' W 000°15'0 0.0
2018-May-26 05:30N 49°17' W 000°15'0 0.0
2018-May-26 05:00N 49°17' W 000°15'0 0.3
2018-May-26 04:31N 49°17' W 000°15'816.1
2018-May-26 04:00N 49°25' W 000°16'816.7
2018-May-26 03:30N 49°32' W 000°22'816.0
2018-May-26 03:00N 49°40' W 000°28'816.5
2018-May-26 02:30N 49°47' W 000°33'816.4
2018-May-26 02:00N 49°55' W 000°37'816.0
2018-May-26 01:29N 50°03' W 000°40'815.8
2018-May-26 00:58N 50°11' W 000°42'714.9
2018-May-26 00:29N 50°18' W 000°47'715.1
2018-May-26 00:00N 50°24' W 000°51'714.8
2018-May-25 23:30N 50°31' W 000°55'815.1
2018-May-25 23:00N 50°39' W 000°59'815.4
2018-May-25 22:30N 50°45' W 001°05'4 7.5
2018-May-25 22:00N 50°49' W 001°06'0 0.0
2018-May-25 21:30N 50°49' W 001°06'0 0.0
2018-May-25 21:00N 50°49' W 001°06'0 0.0
2018-May-25 20:30N 50°49' W 001°06'0 0.2
2018-May-25 20:01N 50°49' W 001°06'4 8.4
2018-May-25 19:31N 50°45' W 001°05'918.1
2018-May-25 19:01N 50°37' W 000°58'918.4
2018-May-25 18:31N 50°28' W 000°51'918.7
2018-May-25 18:00N 50°20' W 000°44'1019.8
2018-May-25 17:31N 50°11' W 000°39'1020.1
2018-May-25 17:00N 50°01' W 000°35'1020.6
2018-May-25 16:31N 49°51' W 000°31'1020.0
2018-May-25 16:01N 49°42' W 000°27'1020.2
2018-May-25 15:31N 49°32' W 000°21'1020.3
2018-May-25 15:00N 49°23' W 000°16'510.5
2018-May-25 14:30N 49°17' W 000°15'0 0.0
2018-May-25 14:00N 49°17' W 000°15'0 0.0
2018-May-25 13:30N 49°17' W 000°15'0 0.0
2018-May-25 13:00N 49°17' W 000°15'3 6.4
2018-May-25 12:31N 49°21' W 000°14'1020.2
2018-May-25 12:01N 49°30' W 000°17'1020.6
2018-May-25 11:31N 49°40' W 000°24'1020.8
2018-May-25 11:01N 49°50' W 000°29'1020.5
2018-May-25 10:30N 49°59' W 000°34'1020.7
2018-May-25 10:01N 50°09' W 000°39'1020.9
2018-May-25 09:31N 50°19' W 000°44'1121.4
2018-May-25 09:01N 50°29' W 000°50'1020.6
2018-May-25 08:31N 50°38' W 000°58'918.6
2018-May-25 08:01N 50°46' W 001°05'3 5.0
2018-May-25 07:30N 50°49' W 001°06'0 0.0
2018-May-25 07:00N 50°49' W 001°06'0 0.0
2018-May-25 06:30N 50°49' W 001°06'0 0.0
2018-May-25 06:00N 50°49' W 001°06'2 3.4
2018-May-25 05:30N 50°47' W 001°06'5 9.0
2018-May-25 05:00N 50°43' W 001°02'816.9
2018-May-25 04:31N 50°36' W 000°57'815.6
2018-May-25 04:01N 50°28' W 000°54'612.7
2018-May-25 03:30N 50°22' W 000°51'611.3
2018-May-25 03:00N 50°17' W 000°48'611.3
2018-May-25 02:30N 50°11' W 000°46'611.7
2018-May-25 02:00N 50°06' W 000°41'815.4
2018-May-25 01:30N 49°59' W 000°36'815.8
2018-May-25 01:00N 49°51' W 000°33'815.2
2018-May-25 00:30N 49°44' W 000°29'815.8
2018-May-25 00:00N 49°37' W 000°23'917.3
2018-May-24 23:30N 49°29' W 000°19'918.0
2018-May-24 23:00N 49°21' W 000°14'3 6.4
2018-May-24 22:30N 49°17' W 000°15'0 0.0
2018-May-24 22:00N 49°17' W 000°15'0 0.0
2018-May-24 21:30N 49°17' W 000°15'0 0.0
2018-May-24 21:00N 49°17' W 000°15'0 0.0
2018-May-24 20:30N 49°17' W 000°15'0 0.0
2018-May-24 20:00N 49°17' W 000°15'0 0.1
2018-May-24 19:30N 49°17' W 000°15'815.2
2018-May-24 19:00N 49°25' W 000°17'1121.5
2018-May-24 18:30N 49°35' W 000°23'1122.0
2018-May-24 18:00N 49°45' W 000°29'1122.0
2018-May-24 17:30N 49°55' W 000°36'1122.0
2018-May-24 17:00N 50°05' W 000°42'1122.0
2018-May-24 16:29N 50°16' W 000°50'1021.7
2018-May-24 16:00N 50°25' W 000°55'1121.0
2018-May-24 15:30N 50°36' W 000°59'1019.0
2018-May-24 15:00N 50°45' W 001°05'4 8.5
2018-May-24 14:30N 50°49' W 001°06'0 0.0
2018-May-24 14:00N 50°49' W 001°06'0 0.0
2018-May-24 13:30N 50°49' W 001°06'5612.4
2018-May-24 09:00N 49°57' W 000°34'1020.0
2018-May-24 08:30N 49°47' W 000°28'919.2
2018-May-24 08:00N 49°39' W 000°22'918.8
2018-May-24 07:30N 49°30' W 000°17'918.8
2018-May-24 07:00N 49°21' W 000°14'3 6.7
2018-May-24 06:30N 49°17' W 000°15'0 0.0
2018-May-24 06:00N 49°17' W 000°15'0 0.0
2018-May-24 05:30N 49°17' W 000°15'0 0.0
2018-May-24 05:00N 49°17' W 000°15'0 0.2
2018-May-24 04:30N 49°17' W 000°15'817.2
2018-May-24 04:00N 49°26' W 000°17'817.0
2018-May-24 03:31N 49°34' W 000°20'816.6
2018-May-24 03:01N 49°42' W 000°25'713.6
2018-May-24 02:30N 49°48' W 000°29'713.2
2018-May-24 02:00N 49°54' W 000°32'712.9
2018-May-24 01:30N 50°00' W 000°36'612.7
2018-May-24 01:00N 50°06' W 000°40'712.6
2018-May-24 00:28N 50°13' W 000°43'612.3
2018-May-23 23:57N 50°18' W 000°47'812.4
2018-May-23 23:19N 50°26' W 000°52'412.2
2018-May-23 23:00N 50°29' W 000°55'612.3
2018-May-23 22:30N 50°35' W 000°59'815.7
2018-May-23 22:01N 50°42' W 000°59'815.0
2018-May-23 21:30N 50°48' W 001°07'1 2.2
2018-May-23 21:00N 50°49' W 001°06'0 0.0
2018-May-23 20:30N 50°49' W 001°06'0 0.0
2018-May-23 20:00N 50°49' W 001°06'0 0.0
2018-May-23 19:30N 50°49' W 001°06'0 0.0
2018-May-23 19:00N 50°49' W 001°06'0 0.0
2018-May-23 18:30N 50°49' W 001°06'0 0.2
2018-May-23 18:00N 50°49' W 001°06'611.2
2018-May-23 17:30N 50°43' W 001°03'1019.6
2018-May-23 17:00N 50°35' W 000°56'816.0
2018-May-23 16:30N 50°28' W 000°48'815.4
2018-May-23 16:00N 50°21' W 000°44'816.6
2018-May-23 15:30N 50°13' W 000°42'1020.1
2018-May-23 15:00N 50°03' W 000°38'1019.8
2018-May-23 14:30N 49°54' W 000°33'1019.6
2018-May-23 14:00N 49°45' W 000°28'1019.7
2018-May-23 13:30N 49°35' W 000°23'1020.0
2018-May-23 13:00N 49°26' W 000°18'817.0
2018-May-23 12:31N 49°18' W 000°15'0 0.5
2018-May-23 12:00N 49°17' W 000°15'0 0.0
2018-May-23 11:31N 49°17' W 000°15'0 0.0
2018-May-23 11:01N 49°17' W 000°15'0 0.0
2018-May-23 10:30N 49°17' W 000°15'0 0.0
2018-May-23 10:01N 49°17' W 000°15'0 0.0
2018-May-23 09:31N 49°17' W 000°15'0 0.0
2018-May-23 09:00N 49°17' W 000°15'0 0.0
2018-May-23 08:30N 49°17' W 000°15'0 0.0
2018-May-23 08:00N 49°17' W 000°15'0 0.0
2018-May-23 07:31N 49°17' W 000°15'0 0.0
2018-May-23 07:01N 49°17' W 000°15'0 0.0
2018-May-23 06:31N 49°17' W 000°15'0 0.0
2018-May-23 06:01N 49°17' W 000°15'0 0.0
2018-May-23 05:31N 49°17' W 000°15'2 4.1
2018-May-23 05:00N 49°19' W 000°15'714.3
2018-May-23 04:31N 49°26' W 000°18'612.3
2018-May-23 04:00N 49°32' W 000°21'612.8
2018-May-23 03:30N 49°38' W 000°24'612.8
2018-May-23 03:00N 49°44' W 000°27'612.8
2018-May-23 02:31N 49°50' W 000°30'713.0
2018-May-23 02:00N 49°56' W 000°33'713.1
2018-May-23 01:30N 50°03' W 000°37'713.1
2018-May-23 01:00N 50°09' W 000°41'713.4
2018-May-23 00:29N 50°15' W 000°46'713.1
2018-May-22 23:58N 50°21' W 000°50'714.7
2018-May-22 23:30N 50°27' W 000°54'816.7
2018-May-22 23:00N 50°36' W 000°57'815.6
2018-May-22 22:30N 50°43' W 001°01'612.6
2018-May-22 22:01N 50°48' W 001°07'1 2.1
2018-May-22 21:30N 50°49' W 001°06'0 0.0
2018-May-22 21:00N 50°49' W 001°06'0 0.0
2018-May-22 20:31N 50°49' W 001°06'0 0.2
2018-May-22 20:00N 50°49' W 001°06'510.0
2018-May-22 19:30N 50°44' W 001°04'917.6
2018-May-22 19:00N 50°36' W 000°58'816.9
2018-May-22 18:30N 50°28' W 000°54'816.6
2018-May-22 18:00N 50°20' W 000°49'917.0
2018-May-22 17:30N 50°12' W 000°44'1019.5
2018-May-22 17:00N 50°03' W 000°39'1019.2
2018-May-22 16:30N 49°54' W 000°34'1019.1
2018-May-22 16:00N 49°45' W 000°29'1019.0
2018-May-22 15:30N 49°36' W 000°24'918.7
2018-May-22 15:00N 49°27' W 000°18'917.8
2018-May-22 14:30N 49°19' W 000°15'2 3.1
2018-May-22 14:00N 49°17' W 000°15'0 0.0
2018-May-22 13:30N 49°17' W 000°15'0 0.0
2018-May-22 13:00N 49°17' W 000°15'1 1.2
2018-May-22 12:30N 49°18' W 000°15'816.1
2018-May-22 12:00N 49°26' W 000°17'917.2
2018-May-22 11:30N 49°34' W 000°23'1019.4
2018-May-22 11:00N 49°43' W 000°28'1019.8
2018-May-22 10:30N 49°52' W 000°34'1019.4
2018-May-22 10:00N 50°01' W 000°39'1020.5
2018-May-22 09:31N 50°11' W 000°43'1020.9
2018-May-22 09:00N 50°20' W 000°50'1121.0
2018-May-22 08:30N 50°30' W 000°55'1020.1
2018-May-22 08:00N 50°40' W 000°60'815.5
2018-May-22 07:30N 50°47' W 001°06'2 4.2
2018-May-22 07:00N 50°49' W 001°06'0 0.0
2018-May-22 06:30N 50°49' W 001°06'0 0.0
2018-May-22 06:01N 50°49' W 001°06'0 0.0
2018-May-22 05:30N 50°49' W 001°06'3 6.8
2018-May-22 05:00N 50°45' W 001°05'815.4
2018-May-22 04:30N 50°39' W 000°59'815.7
2018-May-22 04:00N 50°31' W 000°55'815.5
2018-May-22 03:30N 50°24' W 000°50'611.6
2018-May-22 03:00N 50°19' W 000°47'611.0
2018-May-22 02:31N 50°14' W 000°44'610.9
2018-May-22 02:00N 50°08' W 000°41'510.8
2018-May-22 01:31N 50°03' W 000°38'510.3
2018-May-22 01:01N 49°59' W 000°35'510.5
2018-May-22 00:31N 49°54' W 000°31'510.8
2018-May-22 00:01N 49°49' W 000°29'510.8
2018-May-21 23:31N 49°44' W 000°26'611.1
2018-May-21 23:00N 49°38' W 000°24'611.3
2018-May-21 22:31N 49°33' W 000°20'611.4
2018-May-21 22:00N 49°28' W 000°17'611.7
2018-May-21 21:30N 49°22' W 000°15'5 9.7
2018-May-21 21:01N 49°17' W 000°15'0 0.0
2018-May-21 20:31N 49°17' W 000°15'0 0.0
2018-May-21 20:00N 49°17' W 000°15'0 0.0
2018-May-21 19:31N 49°17' W 000°15'3 5.9
2018-May-21 19:00N 49°20' W 000°15'918.6
2018-May-21 18:30N 49°29' W 000°19'1019.1
2018-May-21 18:00N 49°38' W 000°23'1019.0
2018-May-21 17:30N 49°47' W 000°28'1019.1
2018-May-21 17:00N 49°56' W 000°33'1019.2
2018-May-21 16:30N 50°05' W 000°38'1019.3
2018-May-21 16:00N 50°14' W 000°43'1019.4
2018-May-21 15:30N 50°23' W 000°49'1019.4
2018-May-21 15:00N 50°32' W 000°55'918.4
2018-May-21 14:30N 50°41' W 000°60'714.4
2018-May-21 14:00N 50°47' W 001°06'2 3.7
2018-May-21 13:30N 50°49' W 001°06'0 0.0
2018-May-21 13:00N 50°49' W 001°06'0 0.0
2018-May-21 12:30N 50°49' W 001°06'0 0.2
2018-May-21 12:01N 50°49' W 001°06'4 7.8
2018-May-21 11:30N 50°45' W 001°05'714.1
2018-May-21 11:00N 50°40' W 000°58'917.4
2018-May-21 10:30N 50°31' W 000°56'1020.4
2018-May-21 10:00N 50°21' W 000°51'1121.4
2018-May-21 09:30N 50°11' W 000°46'1121.6
2018-May-21 09:01N 50°01' W 000°39'1121.8
2018-May-21 08:31N 49°51' W 000°33'1121.7
2018-May-21 08:00N 49°41' W 000°28'1121.4
2018-May-21 07:31N 49°31' W 000°21'1020.2
2018-May-21 07:00N 49°22' W 000°15'4 8.4
2018-May-21 06:30N 49°17' W 000°15'0 0.0
2018-May-21 06:00N 49°17' W 000°15'0 0.0
2018-May-21 05:30N 49°17' W 000°15'0 0.0
2018-May-21 05:00N 49°17' W 000°15'0 0.2
2018-May-21 04:31N 49°17' W 000°15'713.9
2018-May-21 04:00N 49°24' W 000°16'713.7
2018-May-21 03:30N 49°31' W 000°18'612.0
2018-May-21 03:00N 49°37' W 000°21'612.0
2018-May-21 02:30N 49°43' W 000°23'714.9
2018-May-21 02:00N 49°50' W 000°26'816.0
2018-May-21 01:30N 49°57' W 000°29'816.1
2018-May-21 01:00N 50°05' W 000°33'816.0
2018-May-21 00:30N 50°12' W 000°37'816.6
2018-May-21 00:00N 50°19' W 000°45'816.0
2018-May-20 23:30N 50°26' W 000°51'816.2
2018-May-20 23:01N 50°34' W 000°56'714.8
2018-May-20 22:31N 50°41' W 000°58'714.4
2018-May-20 22:00N 50°46' W 001°06'2 4.6
2018-May-20 21:30N 50°49' W 001°06'0 0.0
2018-May-20 21:00N 50°49' W 001°06'0 0.0
2018-May-20 20:30N 50°49' W 001°06'1 1.0
2018-May-20 20:00N 50°49' W 001°07'611.6
2018-May-20 19:31N 50°44' W 001°02'714.3
2018-May-20 19:00N 50°37' W 000°58'1019.2
2018-May-20 18:31N 50°28' W 000°52'1019.1
2018-May-20 18:00N 50°20' W 000°44'1019.2
2018-May-20 17:31N 50°11' W 000°40'1019.7
2018-May-20 17:01N 50°02' W 000°35'1019.7
2018-May-20 16:31N 49°52' W 000°29'1019.6
2018-May-20 16:00N 49°43' W 000°24'1019.1
2018-May-20 15:30N 49°34' W 000°19'918.6
2018-May-20 15:00N 49°25' W 000°15'815.5
2018-May-20 14:30N 49°17' W 000°15'0 0.1
2018-May-20 14:01N 49°17' W 000°15'0 0.0
2018-May-20 13:30N 49°17' W 000°15'0 0.0
2018-May-20 13:00N 49°17' W 000°15'3 5.1
2018-May-20 12:30N 49°20' W 000°14'917.7
2018-May-20 12:00N 49°29' W 000°17'917.0
2018-May-20 11:30N 49°36' W 000°22'917.4
2018-May-20 11:00N 49°44' W 000°27'917.8
2018-May-20 10:31N 49°53' W 000°33'1019.7
2018-May-20 10:00N 50°02' W 000°37'1020.1
2018-May-20 09:30N 50°12' W 000°43'1019.9
2018-May-20 09:01N 50°21' W 000°49'1019.6
2018-May-20 08:30N 50°30' W 000°54'919.0
2018-May-20 08:01N 50°39' W 000°59'815.3
2018-May-20 07:30N 50°45' W 001°05'3 6.8
2018-May-20 07:00N 50°49' W 001°06'0 0.0
2018-May-20 06:30N 50°49' W 001°06'0 0.0
2018-May-20 06:00N 50°49' W 001°06'0 0.2
2018-May-20 05:31N 50°49' W 001°06'3 6.9
2018-May-20 05:00N 50°45' W 001°05'714.4
2018-May-20 04:30N 50°39' W 000°59'815.8
2018-May-20 04:00N 50°32' W 000°55'816.2
2018-May-20 03:30N 50°24' W 000°50'713.8
2018-May-20 03:00N 50°18' W 000°46'611.9
2018-May-20 02:28N 50°12' W 000°42'511.6
2018-May-20 02:01N 50°07' W 000°40'611.3
2018-May-20 01:31N 50°01' W 000°37'510.8
2018-May-20 01:00N 49°56' W 000°34'510.5
2018-May-20 00:31N 49°52' W 000°29'510.8
2018-May-20 00:01N 49°47' W 000°26'510.9
2018-May-19 23:30N 49°42' W 000°24'510.8
2018-May-19 23:00N 49°37' W 000°21'510.9
2018-May-19 22:30N 49°32' W 000°19'511.0
2018-May-19 22:01N 49°26' W 000°16'510.4
2018-May-19 21:31N 49°21' W 000°14'4 8.0
2018-May-19 21:01N 49°17' W 000°15'0 0.0
2018-May-19 20:31N 49°17' W 000°15'0 0.0
2018-May-19 20:00N 49°17' W 000°15'0 0.0
2018-May-19 19:30N 49°17' W 000°15'2 3.8
2018-May-19 19:00N 49°19' W 000°15'816.7
2018-May-19 18:30N 49°27' W 000°17'918.2
2018-May-19 18:00N 49°36' W 000°22'918.6
2018-May-19 17:30N 49°45' W 000°27'918.4
2018-May-19 17:00N 49°53' W 000°32'918.4
2018-May-19 16:30N 50°02' W 000°37'918.6
2018-May-19 16:00N 50°11' W 000°42'918.8
2018-May-19 15:30N 50°19' W 000°47'1019.2
2018-May-19 15:00N 50°28' W 000°52'918.9
2018-May-19 14:30N 50°37' W 000°57'918.1
2018-May-19 14:00N 50°45' W 001°05'4 7.6
2018-May-19 13:31N 50°49' W 001°06'0 0.0
2018-May-19 13:01N 50°49' W 001°06'0 0.0
2018-May-19 12:30N 50°49' W 001°06'0 0.1
2018-May-19 12:01N 50°49' W 001°06'5 9.7
2018-May-19 11:31N 50°44' W 001°04'815.6
2018-May-19 11:01N 50°37' W 000°58'816.3
2018-May-19 10:30N 50°30' W 000°52'1020.2
2018-May-19 10:00N 50°20' W 000°48'1021.0
2018-May-19 09:30N 50°10' W 000°44'1020.8
2018-May-19 09:01N 49°60' W 000°40'1020.8
2018-May-19 08:31N 49°50' W 000°35'1121.1
2018-May-19 08:01N 49°40' W 000°28'1121.1
2018-May-19 07:31N 49°31' W 000°22'1020.8
2018-May-19 07:01N 49°21' W 000°15'4 7.7
2018-May-19 06:30N 49°17' W 000°15'0 0.0
2018-May-19 06:00N 49°17' W 000°15'0 0.0
2018-May-19 05:30N 49°17' W 000°15'0 0.0
2018-May-19 05:00N 49°17' W 000°15'0 0.2
2018-May-19 04:30N 49°17' W 000°15'713.7
2018-May-19 04:00N 49°24' W 000°16'611.3
2018-May-19 03:30N 49°30' W 000°18'612.0
2018-May-19 03:01N 49°35' W 000°21'815.4
2018-May-19 02:31N 49°43' W 000°24'815.7
2018-May-19 02:00N 49°50' W 000°28'816.1
2018-May-19 01:30N 49°58' W 000°31'816.3
2018-May-19 01:01N 50°06' W 000°36'816.3
2018-May-19 00:30N 50°13' W 000°40'816.4
2018-May-19 00:01N 50°21' W 000°46'916.3
2018-May-18 23:29N 50°28' W 000°52'816.3
2018-May-18 23:01N 50°35' W 000°57'714.2
2018-May-18 22:30N 50°42' W 001°01'713.3
2018-May-18 22:00N 50°48' W 001°07'1 2.5
2018-May-18 21:30N 50°49' W 001°06'0 0.0
2018-May-18 21:00N 50°49' W 001°06'0 0.0
2018-May-18 20:30N 50°49' W 001°06'0 0.2
2018-May-18 20:01N 50°49' W 001°06'510.0
2018-May-18 19:30N 50°44' W 001°03'815.6
2018-May-18 19:00N 50°37' W 000°58'1019.5
2018-May-18 18:30N 50°28' W 000°51'917.6
2018-May-18 18:00N 50°20' W 000°46'917.7
2018-May-18 17:30N 50°11' W 000°42'918.0
2018-May-18 17:00N 50°03' W 000°38'1019.9
2018-May-18 16:30N 49°54' W 000°32'1019.8
2018-May-18 16:00N 49°44' W 000°27'1019.8
2018-May-18 15:30N 49°35' W 000°21'1019.9
2018-May-18 15:00N 49°26' W 000°17'816.8
2018-May-18 14:31N 49°17' W 000°15'0 0.0
2018-May-18 14:00N 49°17' W 000°15'0 0.0
2018-May-18 13:30N 49°17' W 000°15'0 0.0
2018-May-18 13:01N 49°17' W 000°15'3 6.9
2018-May-18 12:30N 49°21' W 000°14'917.4
2018-May-18 12:00N 49°29' W 000°19'918.0
2018-May-18 11:30N 49°36' W 000°27'917.6
2018-May-18 11:00N 49°45' W 000°31'917.9
2018-May-18 10:30N 49°53' W 000°35'1020.3
2018-May-18 10:00N 50°03' W 000°41'1020.1
2018-May-18 09:30N 50°12' W 000°47'1019.6
2018-May-18 09:00N 50°21' W 000°52'1020.0
2018-May-18 08:30N 50°31' W 000°56'1019.6
2018-May-18 08:00N 50°41' W 000°58'816.4
2018-May-18 07:31N 50°47' W 001°06'2 3.4
2018-May-18 07:00N 50°49' W 001°06'0 0.0
2018-May-18 06:30N 50°49' W 001°06'0 0.0
2018-May-18 06:00N 50°49' W 001°06'0 0.2
2018-May-18 05:30N 50°49' W 001°06'4 8.3
2018-May-18 05:01N 50°45' W 001°05'714.1
2018-May-18 04:31N 50°39' W 000°58'714.9
2018-May-18 04:01N 50°32' W 000°56'713.9
2018-May-18 03:30N 50°25' W 000°53'510.8
2018-May-18 03:00N 50°20' W 000°50'611.4
2018-May-18 02:30N 50°14' W 000°46'611.7
2018-May-18 02:00N 50°09' W 000°43'611.6
2018-May-18 01:31N 50°04' W 000°40'  
Track history (hours):
 
Tides and Currents Weather Stations Pressure Air Temp Water Temp Dewpoint Dewpoint Depression Visibility Wind Speed Wind Dir Waves Ship Positions

Mont Saint Michel

Last reported at 2018-May-28 01:00 UTC. Time now 2018-May-28 01:09 UTC.
Position N 50°05' W 000°43'.

Length 173 m; beam 29 m.

Type: Ship. MMSI: 227023100.

Date/timePositionNaut miles runAvg speedWind from/ knotsBaromVisibWave heightAir tempDewpointWater temp
2018-May-28 01:00N 50°05' W 000°43'714.4
2018-May-28 00:30N 50°12' W 000°48'815.7
2018-May-28 00:00N 50°19' W 000°49'816.0
2018-May-27 23:30N 50°27' W 000°52'815.1
2018-May-27 23:00N 50°34' W 000°57'816.1
2018-May-27 22:31N 50°42' W 001°01'713.0
2018-May-27 22:00N 50°47' W 001°06'2 3.1
2018-May-27 21:30N 50°49' W 001°06'0 0.0
2018-May-27 21:00N 50°49' W 001°06'0 0.0
2018-May-27 20:30N 50°49' W 001°06'0 0.4
2018-May-27 20:01N 50°49' W 001°06'4 8.5
2018-May-27 19:31N 50°45' W 001°05'1019.5
2018-May-27 19:00N 50°36' W 000°57'1019.6
2018-May-27 18:30N 50°27' W 000°50'1020.1
2018-May-27 18:00N 50°18' W 000°45'1019.8
2018-May-27 17:30N 50°09' W 000°40'1019.9
2018-May-27 17:01N 49°59' W 000°34'1020.1
2018-May-27 16:30N 49°50' W 000°30'1019.3
2018-May-27 16:01N 49°40' W 000°25'1019.5
2018-May-27 15:30N 49°31' W 000°21'1019.5
2018-May-27 15:01N 49°22' W 000°15'5 9.4
2018-May-27 14:31N 49°17' W 000°15'0 0.0
2018-May-27 14:00N 49°17' W 000°15'0 0.0
2018-May-27 13:30N 49°17' W 000°15'0 0.0
2018-May-27 13:00N 49°17' W 000°15'4 8.8
2018-May-27 12:31N 49°22' W 000°14'1019.1
2018-May-27 12:01N 49°31' W 000°18'918.8
2018-May-27 11:31N 49°39' W 000°25'1019.7
2018-May-27 11:00N 49°48' W 000°30'918.8
2018-May-27 10:31N 49°57' W 000°37'1019.4
2018-May-27 10:00N 50°06' W 000°43'1019.2
2018-May-27 09:30N 50°15' W 000°48'1019.4
2018-May-27 09:00N 50°24' W 000°52'1019.7
2018-May-27 08:31N 50°33' W 000°56'918.7
2018-May-27 08:01N 50°42' W 001°01'714.1
2018-May-27 07:30N 50°48' W 001°07'1 1.6
2018-May-27 07:00N 50°49' W 001°06'0 0.0
2018-May-27 06:30N 50°49' W 001°06'0 0.0
2018-May-27 06:00N 50°49' W 001°06'0 1.0
2018-May-27 05:30N 50°49' W 001°07'612.2
2018-May-27 05:00N 50°43' W 001°02'917.1
2018-May-27 04:30N 50°36' W 000°56'713.3
2018-May-27 04:01N 50°29' W 000°52'611.9
2018-May-27 03:30N 50°24' W 000°50'612.1
2018-May-27 03:00N 50°18' W 000°47'612.5
2018-May-27 02:31N 50°12' W 000°43'612.4
2018-May-27 02:00N 50°06' W 000°41'612.3
2018-May-27 01:31N 50°00' W 000°39'612.1
2018-May-27 01:01N 49°55' W 000°35'612.1
2018-May-27 00:30N 49°49' W 000°31'612.2
2018-May-27 00:00N 49°43' W 000°28'612.1
2018-May-26 23:30N 49°38' W 000°25'612.0
2018-May-26 23:00N 49°32' W 000°21'611.8
2018-May-26 22:31N 49°27' W 000°16'611.5
2018-May-26 22:01N 49°22' W 000°14'4 8.4
2018-May-26 21:30N 49°17' W 000°15'0 0.0
2018-May-26 21:00N 49°17' W 000°15'0 0.0
2018-May-26 20:30N 49°17' W 000°15'0 0.0
2018-May-26 20:00N 49°17' W 000°15'0 0.0
2018-May-26 19:30N 49°17' W 000°15'4 7.6
2018-May-26 19:01N 49°21' W 000°14'1019.7
2018-May-26 18:31N 49°31' W 000°18'917.0
2018-May-26 18:00N 49°39' W 000°23'917.3
2018-May-26 17:30N 49°47' W 000°28'918.3
2018-May-26 17:01N 49°55' W 000°33'1019.8
2018-May-26 16:31N 50°04' W 000°39'1019.6
2018-May-26 16:00N 50°13' W 000°44'1019.3
2018-May-26 15:31N 50°22' W 000°50'1019.1
2018-May-26 15:01N 50°31' W 000°55'918.8
2018-May-26 14:31N 50°40' W 000°59'815.9
2018-May-26 14:00N 50°47' W 001°06'2 3.8
2018-May-26 13:30N 50°49' W 001°06'0 0.0
2018-May-26 13:01N 50°49' W 001°06'0 0.0
2018-May-26 12:30N 50°49' W 001°06'0 0.3
2018-May-26 12:01N 50°49' W 001°06'510.7
2018-May-26 11:30N 50°44' W 001°03'1019.8
2018-May-26 11:00N 50°35' W 000°56'1121.3
2018-May-26 10:30N 50°25' W 000°50'1121.5
2018-May-26 10:00N 50°15' W 000°42'1121.3
2018-May-26 09:30N 50°05' W 000°38'1019.9
2018-May-26 09:00N 49°56' W 000°32'1019.4
2018-May-26 08:30N 49°47' W 000°27'1019.1
2018-May-26 08:00N 49°38' W 000°21'917.1
2018-May-26 07:31N 49°30' W 000°17'917.4
2018-May-26 07:00N 49°21' W 000°15'4 7.9
2018-May-26 06:30N 49°17' W 000°15'0 0.0
2018-May-26 05:30N 49°17' W 000°15'0 0.0
2018-May-26 05:00N 49°17' W 000°15'0 0.3
2018-May-26 04:31N 49°17' W 000°15'816.1
2018-May-26 04:00N 49°25' W 000°16'816.7
2018-May-26 03:30N 49°32' W 000°22'816.0
2018-May-26 03:00N 49°40' W 000°28'816.5
2018-May-26 02:30N 49°47' W 000°33'816.4
2018-May-26 02:00N 49°55' W 000°37'816.0
2018-May-26 01:29N 50°03' W 000°40'815.8
2018-May-26 00:58N 50°11' W 000°42'714.9
2018-May-26 00:29N 50°18' W 000°47'715.1
2018-May-26 00:00N 50°24' W 000°51'714.8
2018-May-25 23:30N 50°31' W 000°55'815.1
2018-May-25 23:00N 50°39' W 000°59'815.4
2018-May-25 22:30N 50°45' W 001°05'4 7.5
2018-May-25 22:00N 50°49' W 001°06'0 0.0
2018-May-25 21:30N 50°49' W 001°06'0 0.0
2018-May-25 21:00N 50°49' W 001°06'0 0.0
2018-May-25 20:30N 50°49' W 001°06'0 0.2
2018-May-25 20:01N 50°49' W 001°06'4 8.4
2018-May-25 19:31N 50°45' W 001°05'918.1
2018-May-25 19:01N 50°37' W 000°58'918.4
2018-May-25 18:31N 50°28' W 000°51'918.7
2018-May-25 18:00N 50°20' W 000°44'1019.8
2018-May-25 17:31N 50°11' W 000°39'1020.1
2018-May-25 17:00N 50°01' W 000°35'1020.6
2018-May-25 16:31N 49°51' W 000°31'1020.0
2018-May-25 16:01N 49°42' W 000°27'1020.2
2018-May-25 15:31N 49°32' W 000°21'1020.3
2018-May-25 15:00N 49°23' W 000°16'510.5
2018-May-25 14:30N 49°17' W 000°15'0 0.0
2018-May-25 14:00N 49°17' W 000°15'0 0.0
2018-May-25 13:30N 49°17' W 000°15'0 0.0
2018-May-25 13:00N 49°17' W 000°15'3 6.4
2018-May-25 12:31N 49°21' W 000°14'1020.2
2018-May-25 12:01N 49°30' W 000°17'1020.6
2018-May-25 11:31N 49°40' W 000°24'1020.8
2018-May-25 11:01N 49°50' W 000°29'1020.5
2018-May-25 10:30N 49°59' W 000°34'1020.7
2018-May-25 10:01N 50°09' W 000°39'1020.9
2018-May-25 09:31N 50°19' W 000°44'1121.4
2018-May-25 09:01N 50°29' W 000°50'1020.6
2018-May-25 08:31N 50°38' W 000°58'918.6
2018-May-25 08:01N 50°46' W 001°05'3 5.0
2018-May-25 07:30N 50°49' W 001°06'0 0.0
2018-May-25 07:00N 50°49' W 001°06'0 0.0
2018-May-25 06:30N 50°49' W 001°06'0 0.0
2018-May-25 06:00N 50°49' W 001°06'2 3.4
2018-May-25 05:30N 50°47' W 001°06'5 9.0
2018-May-25 05:00N 50°43' W 001°02'816.9
2018-May-25 04:31N 50°36' W 000°57'815.6
2018-May-25 04:01N 50°28' W 000°54'612.7
2018-May-25 03:30N 50°22' W 000°51'611.3
2018-May-25 03:00N 50°17' W 000°48'611.3
2018-May-25 02:30N 50°11' W 000°46'611.7
2018-May-25 02:00N 50°06' W 000°41'815.4
2018-May-25 01:30N 49°59' W 000°36'815.8
2018-May-25 01:00N 49°51' W 000°33'815.2
2018-May-25 00:30N 49°44' W 000°29'815.8
2018-May-25 00:00N 49°37' W 000°23'917.3
2018-May-24 23:30N 49°29' W 000°19'918.0
2018-May-24 23:00N 49°21' W 000°14'3 6.4
2018-May-24 22:30N 49°17' W 000°15'0 0.0
2018-May-24 22:00N 49°17' W 000°15'0 0.0
2018-May-24 21:30N 49°17' W 000°15'0 0.0
2018-May-24 21:00N 49°17' W 000°15'0 0.0
2018-May-24 20:30N 49°17' W 000°15'0 0.0
2018-May-24 20:00N 49°17' W 000°15'0 0.1
2018-May-24 19:30N 49°17' W 000°15'815.2
2018-May-24 19:00N 49°25' W 000°17'1121.5
2018-May-24 18:30N 49°35' W 000°23'1122.0
2018-May-24 18:00N 49°45' W 000°29'1122.0
2018-May-24 17:30N 49°55' W 000°36'1122.0
2018-May-24 17:00N 50°05' W 000°42'1122.0
2018-May-24 16:29N 50°16' W 000°50'1021.7
2018-May-24 16:00N 50°25' W 000°55'1121.0
2018-May-24 15:30N 50°36' W 000°59'1019.0
2018-May-24 15:00N 50°45' W 001°05'4 8.5
2018-May-24 14:30N 50°49' W 001°06'0 0.0
2018-May-24 14:00N 50°49' W 001°06'0 0.0
2018-May-24 13:30N 50°49' W 001°06'5612.4
2018-May-24 09:00N 49°57' W 000°34'1020.0
2018-May-24 08:30N 49°47' W 000°28'919.2
2018-May-24 08:00N 49°39' W 000°22'918.8
2018-May-24 07:30N 49°30' W 000°17'918.8
2018-May-24 07:00N 49°21' W 000°14'3 6.7
2018-May-24 06:30N 49°17' W 000°15'0 0.0
2018-May-24 06:00N 49°17' W 000°15'0 0.0
2018-May-24 05:30N 49°17' W 000°15'0 0.0
2018-May-24 05:00N 49°17' W 000°15'0 0.2
2018-May-24 04:30N 49°17' W 000°15'817.2
2018-May-24 04:00N 49°26' W 000°17'817.0
2018-May-24 03:31N 49°34' W 000°20'816.6
2018-May-24 03:01N 49°42' W 000°25'713.6
2018-May-24 02:30N 49°48' W 000°29'713.2
2018-May-24 02:00N 49°54' W 000°32'712.9
2018-May-24 01:30N 50°00' W 000°36'612.7
2018-May-24 01:00N 50°06' W 000°40'712.6
2018-May-24 00:28N 50°13' W 000°43'612.3
2018-May-23 23:57N 50°18' W 000°47'812.4
2018-May-23 23:19N 50°26' W 000°52'412.2
2018-May-23 23:00N 50°29' W 000°55'612.3
2018-May-23 22:30N 50°35' W 000°59'815.7
2018-May-23 22:01N 50°42' W 000°59'815.0
2018-May-23 21:30N 50°48' W 001°07'1 2.2
2018-May-23 21:00N 50°49' W 001°06'0 0.0
2018-May-23 20:30N 50°49' W 001°06'0 0.0
2018-May-23 20:00N 50°49' W 001°06'0 0.0
2018-May-23 19:30N 50°49' W 001°06'0 0.0
2018-May-23 19:00N 50°49' W 001°06'0 0.0
2018-May-23 18:30N 50°49' W 001°06'0 0.2
2018-May-23 18:00N 50°49' W 001°06'611.2
2018-May-23 17:30N 50°43' W 001°03'1019.6
2018-May-23 17:00N 50°35' W 000°56'816.0
2018-May-23 16:30N 50°28' W 000°48'815.4
2018-May-23 16:00N 50°21' W 000°44'816.6
2018-May-23 15:30N 50°13' W 000°42'1020.1
2018-May-23 15:00N 50°03' W 000°38'1019.8
2018-May-23 14:30N 49°54' W 000°33'1019.6
2018-May-23 14:00N 49°45' W 000°28'1019.7
2018-May-23 13:30N 49°35' W 000°23'1020.0
2018-May-23 13:00N 49°26' W 000°18'817.0
2018-May-23 12:31N 49°18' W 000°15'0 0.5
2018-May-23 12:00N 49°17' W 000°15'0 0.0
2018-May-23 11:31N 49°17' W 000°15'0 0.0
2018-May-23 11:01N 49°17' W 000°15'0 0.0
2018-May-23 10:30N 49°17' W 000°15'0 0.0
2018-May-23 10:01N 49°17' W 000°15'0 0.0
2018-May-23 09:31N 49°17' W 000°15'0 0.0
2018-May-23 09:00N 49°17' W 000°15'0 0.0
2018-May-23 08:30N 49°17' W 000°15'0 0.0
2018-May-23 08:00N 49°17' W 000°15'0 0.0
2018-May-23 07:31N 49°17' W 000°15'0 0.0
2018-May-23 07:01N 49°17' W 000°15'0 0.0
2018-May-23 06:31N 49°17' W 000°15'0 0.0
2018-May-23 06:01N 49°17' W 000°15'0 0.0
2018-May-23 05:31N 49°17' W 000°15'2 4.1
2018-May-23 05:00N 49°19' W 000°15'714.3
2018-May-23 04:31N 49°26' W 000°18'612.3
2018-May-23 04:00N 49°32' W 000°21'612.8
2018-May-23 03:30N 49°38' W 000°24'612.8
2018-May-23 03:00N 49°44' W 000°27'612.8
2018-May-23 02:31N 49°50' W 000°30'713.0
2018-May-23 02:00N 49°56' W 000°33'713.1
2018-May-23 01:30N 50°03' W 000°37'713.1
2018-May-23 01:00N 50°09' W 000°41'713.4
2018-May-23 00:29N 50°15' W 000°46'713.1
2018-May-22 23:58N 50°21' W 000°50'714.7
2018-May-22 23:30N 50°27' W 000°54'816.7
2018-May-22 23:00N 50°36' W 000°57'815.6
2018-May-22 22:30N 50°43' W 001°01'612.6
2018-May-22 22:01N 50°48' W 001°07'1 2.1
2018-May-22 21:30N 50°49' W 001°06'0 0.0
2018-May-22 21:00N 50°49' W 001°06'0 0.0
2018-May-22 20:31N 50°49' W 001°06'0 0.2
2018-May-22 20:00N 50°49' W 001°06'510.0
2018-May-22 19:30N 50°44' W 001°04'917.6
2018-May-22 19:00N 50°36' W 000°58'816.9
2018-May-22 18:30N 50°28' W 000°54'816.6
2018-May-22 18:00N 50°20' W 000°49'917.0
2018-May-22 17:30N 50°12' W 000°44'1019.5
2018-May-22 17:00N 50°03' W 000°39'1019.2
2018-May-22 16:30N 49°54' W 000°34'1019.1
2018-May-22 16:00N 49°45' W 000°29'1019.0
2018-May-22 15:30N 49°36' W 000°24'918.7
2018-May-22 15:00N 49°27' W 000°18'917.8
2018-May-22 14:30N 49°19' W 000°15'2 3.1
2018-May-22 14:00N 49°17' W 000°15'0 0.0
2018-May-22 13:30N 49°17' W 000°15'0 0.0
2018-May-22 13:00N 49°17' W 000°15'1 1.2
2018-May-22 12:30N 49°18' W 000°15'816.1
2018-May-22 12:00N 49°26' W 000°17'917.2
2018-May-22 11:30N 49°34' W 000°23'1019.4
2018-May-22 11:00N 49°43' W 000°28'1019.8
2018-May-22 10:30N 49°52' W 000°34'1019.4
2018-May-22 10:00N 50°01' W 000°39'1020.5
2018-May-22 09:31N 50°11' W 000°43'1020.9
2018-May-22 09:00N 50°20' W 000°50'1121.0
2018-May-22 08:30N 50°30' W 000°55'1020.1
2018-May-22 08:00N 50°40' W 000°60'815.5
2018-May-22 07:30N 50°47' W 001°06'2 4.2
2018-May-22 07:00N 50°49' W 001°06'0 0.0
2018-May-22 06:30N 50°49' W 001°06'0 0.0
2018-May-22 06:01N 50°49' W 001°06'0 0.0
2018-May-22 05:30N 50°49' W 001°06'3 6.8
2018-May-22 05:00N 50°45' W 001°05'815.4
2018-May-22 04:30N 50°39' W 000°59'815.7
2018-May-22 04:00N 50°31' W 000°55'815.5
2018-May-22 03:30N 50°24' W 000°50'611.6
2018-May-22 03:00N 50°19' W 000°47'611.0
2018-May-22 02:31N 50°14' W 000°44'610.9
2018-May-22 02:00N 50°08' W 000°41'510.8
2018-May-22 01:31N 50°03' W 000°38'510.3
2018-May-22 01:01N 49°59' W 000°35'510.5
2018-May-22 00:31N 49°54' W 000°31'510.8
2018-May-22 00:01N 49°49' W 000°29'510.8
2018-May-21 23:31N 49°44' W 000°26'611.1
2018-May-21 23:00N 49°38' W 000°24'611.3
2018-May-21 22:31N 49°33' W 000°20'611.4
2018-May-21 22:00N 49°28' W 000°17'611.7
2018-May-21 21:30N 49°22' W 000°15'5 9.7
2018-May-21 21:01N 49°17' W 000°15'0 0.0
2018-May-21 20:31N 49°17' W 000°15'0 0.0
2018-May-21 20:00N 49°17' W 000°15'0 0.0
2018-May-21 19:31N 49°17' W 000°15'3 5.9
2018-May-21 19:00N 49°20' W 000°15'918.6
2018-May-21 18:30N 49°29' W 000°19'1019.1
2018-May-21 18:00N 49°38' W 000°23'1019.0
2018-May-21 17:30N 49°47' W 000°28'1019.1
2018-May-21 17:00N 49°56' W 000°33'1019.2
2018-May-21 16:30N 50°05' W 000°38'1019.3
2018-May-21 16:00N 50°14' W 000°43'1019.4
2018-May-21 15:30N 50°23' W 000°49'1019.4
2018-May-21 15:00N 50°32' W 000°55'918.4
2018-May-21 14:30N 50°41' W 000°60'714.4
2018-May-21 14:00N 50°47' W 001°06'2 3.7
2018-May-21 13:30N 50°49' W 001°06'0 0.0
2018-May-21 13:00N 50°49' W 001°06'0 0.0
2018-May-21 12:30N 50°49' W 001°06'0 0.2
2018-May-21 12:01N 50°49' W 001°06'4 7.8
2018-May-21 11:30N 50°45' W 001°05'714.1
2018-May-21 11:00N 50°40' W 000°58'917.4
2018-May-21 10:30N 50°31' W 000°56'1020.4
2018-May-21 10:00N 50°21' W 000°51'1121.4
2018-May-21 09:30N 50°11' W 000°46'1121.6
2018-May-21 09:01N 50°01' W 000°39'1121.8
2018-May-21 08:31N 49°51' W 000°33'1121.7
2018-May-21 08:00N 49°41' W 000°28'1121.4
2018-May-21 07:31N 49°31' W 000°21'1020.2
2018-May-21 07:00N 49°22' W 000°15'4 8.4
2018-May-21 06:30N 49°17' W 000°15'0 0.0
2018-May-21 06:00N 49°17' W 000°15'0 0.0
2018-May-21 05:30N 49°17' W 000°15'0 0.0
2018-May-21 05:00N 49°17' W 000°15'0 0.2
2018-May-21 04:31N 49°17' W 000°15'713.9
2018-May-21 04:00N 49°24' W 000°16'713.7
2018-May-21 03:30N 49°31' W 000°18'612.0
2018-May-21 03:00N 49°37' W 000°21'612.0
2018-May-21 02:30N 49°43' W 000°23'714.9
2018-May-21 02:00N 49°50' W 000°26'816.0
2018-May-21 01:30N 49°57' W 000°29'816.1
2018-May-21 01:00N 50°05' W 000°33'816.0
2018-May-21 00:30N 50°12' W 000°37'816.6
2018-May-21 00:00N 50°19' W 000°45'816.0
2018-May-20 23:30N 50°26' W 000°51'816.2
2018-May-20 23:01N 50°34' W 000°56'714.8
2018-May-20 22:31N 50°41' W 000°58'714.4
2018-May-20 22:00N 50°46' W 001°06'2 4.6
2018-May-20 21:30N 50°49' W 001°06'0 0.0
2018-May-20 21:00N 50°49' W 001°06'0 0.0
2018-May-20 20:30N 50°49' W 001°06'1 1.0
2018-May-20 20:00N 50°49' W 001°07'611.6
2018-May-20 19:31N 50°44' W 001°02'714.3
2018-May-20 19:00N 50°37' W 000°58'1019.2
2018-May-20 18:31N 50°28' W 000°52'1019.1
2018-May-20 18:00N 50°20' W 000°44'1019.2
2018-May-20 17:31N 50°11' W 000°40'1019.7
2018-May-20 17:01N 50°02' W 000°35'1019.7
2018-May-20 16:31N 49°52' W 000°29'1019.6
2018-May-20 16:00N 49°43' W 000°24'1019.1
2018-May-20 15:30N 49°34' W 000°19'918.6
2018-May-20 15:00N 49°25' W 000°15'815.5
2018-May-20 14:30N 49°17' W 000°15'0 0.1
2018-May-20 14:01N 49°17' W 000°15'0 0.0
2018-May-20 13:30N 49°17' W 000°15'0 0.0
2018-May-20 13:00N 49°17' W 000°15'3 5.1
2018-May-20 12:30N 49°20' W 000°14'917.7
2018-May-20 12:00N 49°29' W 000°17'917.0
2018-May-20 11:30N 49°36' W 000°22'917.4
2018-May-20 11:00N 49°44' W 000°27'917.8
2018-May-20 10:31N 49°53' W 000°33'1019.7
2018-May-20 10:00N 50°02' W 000°37'1020.1
2018-May-20 09:30N 50°12' W 000°43'1019.9
2018-May-20 09:01N 50°21' W 000°49'1019.6
2018-May-20 08:30N 50°30' W 000°54'919.0
2018-May-20 08:01N 50°39' W 000°59'815.3
2018-May-20 07:30N 50°45' W 001°05'3 6.8
2018-May-20 07:00N 50°49' W 001°06'0 0.0
2018-May-20 06:30N 50°49' W 001°06'0 0.0
2018-May-20 06:00N 50°49' W 001°06'0 0.2
2018-May-20 05:31N 50°49' W 001°06'3 6.9
2018-May-20 05:00N 50°45' W 001°05'714.4
2018-May-20 04:30N 50°39' W 000°59'815.8
2018-May-20 04:00N 50°32' W 000°55'816.2
2018-May-20 03:30N 50°24' W 000°50'713.8
2018-May-20 03:00N 50°18' W 000°46'611.9
2018-May-20 02:28N 50°12' W 000°42'511.6
2018-May-20 02:01N 50°07' W 000°40'611.3
2018-May-20 01:31N 50°01' W 000°37'510.8
2018-May-20 01:00N 49°56' W 000°34'510.5
2018-May-20 00:31N 49°52' W 000°29'510.8
2018-May-20 00:01N 49°47' W 000°26'510.9
2018-May-19 23:30N 49°42' W 000°24'510.8
2018-May-19 23:00N 49°37' W 000°21'510.9
2018-May-19 22:30N 49°32' W 000°19'511.0
2018-May-19 22:01N 49°26' W 000°16'510.4
2018-May-19 21:31N 49°21' W 000°14'4 8.0
2018-May-19 21:01N 49°17' W 000°15'0 0.0
2018-May-19 20:31N 49°17' W 000°15'0 0.0
2018-May-19 20:00N 49°17' W 000°15'0 0.0
2018-May-19 19:30N 49°17' W 000°15'2 3.8
2018-May-19 19:00N 49°19' W 000°15'816.7
2018-May-19 18:30N 49°27' W 000°17'918.2
2018-May-19 18:00N 49°36' W 000°22'918.6
2018-May-19 17:30N 49°45' W 000°27'918.4
2018-May-19 17:00N 49°53' W 000°32'918.4
2018-May-19 16:30N 50°02' W 000°37'918.6
2018-May-19 16:00N 50°11' W 000°42'918.8
2018-May-19 15:30N 50°19' W 000°47'1019.2
2018-May-19 15:00N 50°28' W 000°52'918.9
2018-May-19 14:30N 50°37' W 000°57'918.1
2018-May-19 14:00N 50°45' W 001°05'4 7.6
2018-May-19 13:31N 50°49' W 001°06'0 0.0
2018-May-19 13:01N 50°49' W 001°06'0 0.0
2018-May-19 12:30N 50°49' W 001°06'0 0.1
2018-May-19 12:01N 50°49' W 001°06'5 9.7
2018-May-19 11:31N 50°44' W 001°04'815.6
2018-May-19 11:01N 50°37' W 000°58'816.3
2018-May-19 10:30N 50°30' W 000°52'1020.2
2018-May-19 10:00N 50°20' W 000°48'1021.0
2018-May-19 09:30N 50°10' W 000°44'1020.8
2018-May-19 09:01N 49°60' W 000°40'1020.8
2018-May-19 08:31N 49°50' W 000°35'1121.1
2018-May-19 08:01N 49°40' W 000°28'1121.1
2018-May-19 07:31N 49°31' W 000°22'1020.8
2018-May-19 07:01N 49°21' W 000°15'4 7.7
2018-May-19 06:30N 49°17' W 000°15'0 0.0
2018-May-19 06:00N 49°17' W 000°15'0 0.0
2018-May-19 05:30N 49°17' W 000°15'0 0.0
2018-May-19 05:00N 49°17' W 000°15'0 0.2
2018-May-19 04:30N 49°17' W 000°15'713.7
2018-May-19 04:00N 49°24' W 000°16'611.3
2018-May-19 03:30N 49°30' W 000°18'612.0
2018-May-19 03:01N 49°35' W 000°21'815.4
2018-May-19 02:31N 49°43' W 000°24'815.7
2018-May-19 02:00N 49°50' W 000°28'816.1
2018-May-19 01:30N 49°58' W 000°31'816.3
2018-May-19 01:01N 50°06' W 000°36'816.3
2018-May-19 00:30N 50°13' W 000°40'816.4
2018-May-19 00:01N 50°21' W 000°46'916.3
2018-May-18 23:29N 50°28' W 000°52'816.3
2018-May-18 23:01N 50°35' W 000°57'714.2
2018-May-18 22:30N 50°42' W 001°01'713.3
2018-May-18 22:00N 50°48' W 001°07'1 2.5
2018-May-18 21:30N 50°49' W 001°06'0 0.0
2018-May-18 21:00N 50°49' W 001°06'0 0.0
2018-May-18 20:30N 50°49' W 001°06'0 0.2
2018-May-18 20:01N 50°49' W 001°06'510.0
2018-May-18 19:30N 50°44' W 001°03'815.6
2018-May-18 19:00N 50°37' W 000°58'1019.5
2018-May-18 18:30N 50°28' W 000°51'917.6
2018-May-18 18:00N 50°20' W 000°46'917.7
2018-May-18 17:30N 50°11' W 000°42'918.0
2018-May-18 17:00N 50°03' W 000°38'1019.9
2018-May-18 16:30N 49°54' W 000°32'1019.8
2018-May-18 16:00N 49°44' W 000°27'1019.8
2018-May-18 15:30N 49°35' W 000°21'1019.9
2018-May-18 15:00N 49°26' W 000°17'816.8
2018-May-18 14:31N 49°17' W 000°15'0 0.0
2018-May-18 14:00N 49°17' W 000°15'0 0.0
2018-May-18 13:30N 49°17' W 000°15'0 0.0
2018-May-18 13:01N 49°17' W 000°15'3 6.9
2018-May-18 12:30N 49°21' W 000°14'917.4
2018-May-18 12:00N 49°29' W 000°19'918.0
2018-May-18 11:30N 49°36' W 000°27'917.6
2018-May-18 11:00N 49°45' W 000°31'917.9
2018-May-18 10:30N 49°53' W 000°35'1020.3
2018-May-18 10:00N 50°03' W 000°41'1020.1
2018-May-18 09:30N 50°12' W 000°47'1019.6
2018-May-18 09:00N 50°21' W 000°52'1020.0
2018-May-18 08:30N 50°31' W 000°56'1019.6
2018-May-18 08:00N 50°41' W 000°58'816.4
2018-May-18 07:31N 50°47' W 001°06'2 3.4
2018-May-18 07:00N 50°49' W 001°06'0 0.0
2018-May-18 06:30N 50°49' W 001°06'0 0.0
2018-May-18 06:00N 50°49' W 001°06'0 0.2
2018-May-18 05:30N 50°49' W 001°06'4 8.3
2018-May-18 05:01N 50°45' W 001°05'714.1
2018-May-18 04:31N 50°39' W 000°58'714.9
2018-May-18 04:01N 50°32' W 000°56'713.9
2018-May-18 03:30N 50°25' W 000°53'510.8
2018-May-18 03:00N 50°20' W 000°50'611.4
2018-May-18 02:30N 50°14' W 000°46'611.7
2018-May-18 02:00N 50°09' W 000°43'611.6
2018-May-18 01:31N 50°04' W 000°40'  

Dump ship's entire track history